Time;durP1;ratioP1;P1;durP2;ratioP2;P2;SDS_P1;SDS_P2;PMS_P1;PMS_P2;Temp;Humidity;BMP_temperature;BMP_pressure;BME280_temperature;BME280_humidity;BME280_pressure;Samples;Min_cycle;Max_cycle;Signal;HPM_P1;HPM_P2
2022/01/19 00:00:20;;;;;;;16.60;12.57;;;3.50;99.90;;;;;;2611204;47;20419;-78
2022/01/19 00:02:46;;;;;;;13.50;10.70;;;3.50;99.90;;;;;;2610524;47;20194;-79
2022/01/19 00:05:12;;;;;;;13.63;10.20;;;3.60;99.90;;;;;;2610081;39;20845;-77
2022/01/19 00:07:39;;;;;;;25.73;13.73;;;3.60;99.90;;;;;;2610762;47;20166;-77
2022/01/19 00:10:10;;;;;;;15.53;11.30;;;3.60;99.90;;;;;;2608838;54;20427;-78
2022/01/19 00:12:36;;;;;;;15.83;11.87;;;3.30;99.90;;;;;;2610466;54;20419;-80
2022/01/19 00:15:03;;;;;;;12.80;11.47;;;3.30;99.90;;;;;;2611013;54;20416;-77
2022/01/19 00:17:28;;;;;;;17.77;12.77;;;3.20;99.90;;;;;;2609780;47;20412;-77
2022/01/19 00:19:54;;;;;;;26.70;12.20;;;3.30;99.90;;;;;;2610318;54;20395;-79
2022/01/19 00:22:20;;;;;;;21.03;12.97;;;3.40;99.90;;;;;;2610272;54;20135;-77
2022/01/19 00:24:47;;;;;;;16.90;13.17;;;3.20;99.90;;;;;;2610246;54;20155;-78
2022/01/19 00:27:13;;;;;;;15.87;11.50;;;3.30;99.90;;;;;;2610653;54;20691;-78
2022/01/19 00:29:39;;;;;;;19.87;11.77;;;3.40;99.90;;;;;;2610373;54;20414;-77
2022/01/19 00:32:05;;;;;;;16.77;12.13;;;3.40;99.90;;;;;;2610306;39;20872;-77
2022/01/19 00:34:32;;;;;;;18.43;12.30;;;3.10;99.90;;;;;;2610616;39;20943;-78
2022/01/19 00:36:58;;;;;;;22.83;13.37;;;3.20;99.90;;;;;;2609147;54;20438;-77
2022/01/19 00:39:29;;;;;;;20.93;13.20;;;3.10;99.90;;;;;;2608791;54;20425;-77
2022/01/19 00:41:56;;;;;;;24.47;13.53;;;3.00;99.90;;;;;;2610042;39;20607;-77
2022/01/19 00:44:22;;;;;;;20.90;13.83;;;3.00;99.90;;;;;;2610981;54;20392;-78
2022/01/19 00:46:48;;;;;;;22.47;13.10;;;3.20;99.90;;;;;;2610508;47;20467;-78
2022/01/19 00:49:14;;;;;;;17.63;12.93;;;3.00;99.90;;;;;;2611141;54;20175;-81
2022/01/19 00:51:40;;;;;;;12.50;11.20;;;3.00;99.90;;;;;;2610900;54;20151;-78
2022/01/19 00:54:05;;;;;;;16.97;12.03;;;2.90;99.90;;;;;;2612221;54;20448;-78
2022/01/19 00:56:34;;;;;;;18.07;14.63;;;2.90;99.90;;;;;;2610100;47;20399;-80
2022/01/19 00:59:00;;;;;;;19.00;13.57;;;2.70;99.90;;;;;;2610609;39;20474;-77
2022/01/19 01:01:26;;;;;;;23.47;13.27;;;2.50;99.90;;;;;;2611647;47;20490;-77
2022/01/19 01:03:53;;;;;;;18.87;13.47;;;2.80;99.90;;;;;;2610763;39;20759;-79
2022/01/19 01:06:21;;;;;;;17.67;13.00;;;2.90;99.90;;;;;;2611486;54;20518;-78
2022/01/19 01:08:47;;;;;;;21.43;13.47;;;3.10;99.90;;;;;;2610334;54;20423;-78
2022/01/19 01:11:14;;;;;;;18.40;14.37;;;3.10;99.90;;;;;;2610592;54;20899;-77
2022/01/19 01:16:38;;;;;;;17.17;12.97;;;2.90;99.90;;;;;;2610584;47;20438;-79
2022/01/19 01:19:06;;;;;;;17.00;11.90;;;2.70;99.90;;;;;;2611123;39;20822;-78
2022/01/19 01:21:35;;;;;;;15.17;11.47;;;2.60;99.90;;;;;;2610483;47;20423;-78
2022/01/19 01:24:02;;;;;;;17.73;13.57;;;2.40;99.90;;;;;;2610774;47;20430;-78
2022/01/19 01:26:28;;;;;;;20.07;12.00;;;2.40;99.90;;;;;;2609890;54;20411;-79
2022/01/19 01:28:54;;;;;;;14.70;11.40;;;2.20;99.90;;;;;;2610707;47;20453;-78
2022/01/19 01:31:20;;;;;;;14.37;12.03;;;2.10;99.90;;;;;;2610492;54;20400;-78
2022/01/19 01:33:46;;;;;;;15.40;11.17;;;2.00;99.90;;;;;;2611389;54;20400;-79
2022/01/19 01:36:12;;;;;;;18.37;10.73;;;2.30;99.90;;;;;;2610264;46;20230;-78
2022/01/19 01:38:38;;;;;;;16.47;12.63;;;2.40;99.90;;;;;;2612428;54;20465;-79
2022/01/19 01:41:09;;;;;;;20.87;12.47;;;2.40;99.90;;;;;;2609184;47;20423;-78
2022/01/19 01:43:35;;;;;;;13.10;10.70;;;2.40;99.90;;;;;;2611582;47;20415;-78
2022/01/19 01:46:09;;;;;;;14.43;11.70;;;2.50;99.90;;;;;;2608927;46;20462;-79
2022/01/19 01:48:42;;;;;;;12.13;10.70;;;2.40;99.90;;;;;;2612100;54;20395;-78
2022/01/19 01:53:55;;;;;;;11.40;9.57;;;2.30;99.90;;;;;;2610783;51;20991;-78
2022/01/19 01:56:21;;;;;;;12.67;10.50;;;2.40;99.90;;;;;;2611408;47;20420;-77
2022/01/19 01:58:51;;;;;;;13.30;11.17;;;2.40;99.90;;;;;;2610532;51;20420;-77
2022/01/19 02:01:40;;;;;;;14.60;11.77;;;2.00;99.90;;;;;;2610229;47;21126;-78
2022/01/19 02:04:10;;;;;;;13.80;9.97;;;2.00;99.90;;;;;;2610093;47;20455;-77
2022/01/19 02:09:25;;;;;;;12.63;11.30;;;1.90;99.90;;;;;;2610197;47;20535;-78
2022/01/19 02:23:34;;;;;;;18.77;12.50;;;1.70;99.90;;;;;;2609854;50;20448;-78
2022/01/19 02:26:05;;;;;;;15.43;11.23;;;1.30;99.90;;;;;;2609491;47;20460;-79
2022/01/19 02:36:37;;;;;;;11.60;9.67;;;2.50;99.90;;;;;;2609782;51;20403;-80
2022/01/19 02:41:49;;;;;;;13.27;11.17;;;2.90;99.90;;;;;;2611137;46;20446;-77
2022/01/19 02:44:29;;;;;;;24.47;13.13;;;3.10;99.90;;;;;;2611585;54;20415;-77
2022/01/19 02:49:41;;;;;;;17.30;12.47;;;3.20;99.90;;;;;;2608670;54;20426;-77
2022/01/19 02:52:06;;;;;;;20.07;13.53;;;3.10;99.90;;;;;;2611087;47;20395;-78
2022/01/19 02:54:33;;;;;;;16.83;10.73;;;3.00;99.90;;;;;;2610955;51;20413;-77
2022/01/19 02:57:01;;;;;;;15.17;11.57;;;3.00;99.90;;;;;;2611081;54;20477;-77
2022/01/19 03:10:17;;;;;;;14.60;11.73;;;3.90;99.90;;;;;;2610715;54;20458;-77
2022/01/19 03:12:45;;;;;;;17.43;13.93;;;3.80;99.90;;;;;;2610899;54;20414;-77
2022/01/19 03:15:13;;;;;;;14.70;11.23;;;3.90;99.90;;;;;;2612058;51;21457;-78
2022/01/19 03:17:40;;;;;;;15.27;11.67;;;3.90;99.90;;;;;;2613360;54;20387;-77
2022/01/19 03:20:08;;;;;;;14.37;12.43;;;3.80;99.90;;;;;;2612976;47;20453;-78
2022/01/19 03:22:42;;;;;;;18.23;13.17;;;3.80;99.90;;;;;;2612646;54;20394;-78
2022/01/19 03:25:13;;;;;;;14.47;11.30;;;4.20;99.90;;;;;;2612605;47;20603;-78
2022/01/19 03:27:47;;;;;;;14.13;12.33;;;4.20;99.90;;;;;;2613073;54;20427;-78
2022/01/19 03:30:17;;;;;;;11.90;9.70;;;4.20;99.90;;;;;;2612574;54;20983;-78
2022/01/19 03:32:43;;;;;;;14.03;12.67;;;4.20;99.90;;;;;;2614790;54;20426;-77
2022/01/19 03:35:12;;;;;;;12.23;10.73;;;4.10;99.90;;;;;;2612600;47;20515;-79
2022/01/19 03:37:39;;;;;;;19.00;11.17;;;4.40;99.90;;;;;;2612247;39;20857;-77
2022/01/19 03:40:06;;;;;;;11.87;8.90;;;4.30;99.90;;;;;;2611925;47;20426;-79
2022/01/19 03:42:32;;;;;;;12.60;10.70;;;4.50;99.90;;;;;;2613333;47;20408;-78
2022/01/19 03:44:58;;;;;;;11.90;10.70;;;4.50;99.90;;;;;;2610845;47;20610;-77
2022/01/19 03:47:28;;;;;;;12.60;10.77;;;4.40;99.90;;;;;;2611302;47;20246;-77
2022/01/19 03:49:54;;;;;;;13.03;11.00;;;4.50;99.90;;;;;;2612408;54;20214;-77
2022/01/19 03:52:21;;;;;;;15.47;10.90;;;4.50;99.90;;;;;;2611026;47;20424;-78
2022/01/19 03:54:47;;;;;;;13.27;10.03;;;4.60;99.90;;;;;;2612019;47;20424;-77
2022/01/19 03:57:13;;;;;;;11.53;10.43;;;4.60;99.90;;;;;;2611670;47;20983;-77
2022/01/19 03:59:39;;;;;;;12.83;10.33;;;4.50;99.90;;;;;;2612591;54;20487;-78
2022/01/19 04:02:06;;;;;;;11.43;9.60;;;4.50;99.90;;;;;;2612156;54;20159;-77
2022/01/19 04:07:27;;;;;;;12.17;10.97;;;4.70;99.90;;;;;;2612051;46;20447;-78
2022/01/19 04:09:53;;;;;;;15.73;11.03;;;4.60;99.90;;;;;;2611776;54;20539;-78
2022/01/19 04:12:25;;;;;;;14.80;12.40;;;4.70;99.90;;;;;;2612991;47;20431;-77
2022/01/19 04:14:50;;;;;;;13.73;11.70;;;4.50;99.90;;;;;;2612913;54;20423;-78
2022/01/19 04:17:17;;;;;;;14.47;12.23;;;4.50;99.90;;;;;;2614166;39;20820;-78
2022/01/19 04:19:46;;;;;;;12.70;11.40;;;4.50;99.90;;;;;;2613125;51;20435;-77
2022/01/19 04:22:20;;;;;;;14.70;13.00;;;4.60;99.90;;;;;;2613124;51;20431;-78
2022/01/19 04:24:48;;;;;;;15.43;13.60;;;4.70;99.90;;;;;;2612389;54;20992;-79
2022/01/19 04:29:45;;;;;;;14.30;11.07;;;4.60;99.90;;;;;;2614770;39;20698;-78
2022/01/19 04:32:15;;;;;;;12.63;11.43;;;4.70;99.90;;;;;;2612441;39;20463;-78
2022/01/19 04:34:43;;;;;;;14.60;12.17;;;4.60;99.90;;;;;;2613188;46;20429;-79
2022/01/19 05:05:35;;;;;;;12.03;10.83;;;4.80;99.90;;;;;;2613907;47;20423;-77
2022/01/19 05:08:22;;;;;;;12.83;11.47;;;4.80;99.90;;;;;;2614298;46;20413;-78
2022/01/19 05:13:25;;;;;;;11.70;10.27;;;4.90;99.90;;;;;;2613199;47;20430;-78
2022/01/19 05:15:51;;;;;;;10.77;9.87;;;5.00;99.90;;;;;;2612698;39;20592;-78
2022/01/19 05:18:20;;;;;;;11.10;9.93;;;4.90;99.90;;;;;;2614434;54;20415;-78
2022/01/19 05:20:47;;;;;;;11.93;10.80;;;4.90;99.90;;;;;;2611770;47;20458;-78
2022/01/19 05:23:31;;;;;;;13.63;11.50;;;5.10;99.90;;;;;;2614552;39;20916;-79
2022/01/19 05:25:57;;;;;;;10.00;9.10;;;5.10;99.90;;;;;;2612963;46;20403;-77
2022/01/19 05:28:29;;;;;;;11.77;10.57;;;5.00;99.90;;;;;;2614343;47;20427;-77
2022/01/19 05:30:54;;;;;;;8.17;7.47;;;4.90;99.90;;;;;;2614654;54;20443;-78
2022/01/19 05:33:20;;;;;;;10.03;9.03;;;5.00;99.90;;;;;;2612453;54;20431;-79
2022/01/19 05:35:46;;;;;;;11.80;10.60;;;5.00;99.90;;;;;;2612897;54;20175;-78
2022/01/19 05:38:27;;;;;;;11.23;10.07;;;4.90;99.90;;;;;;2613148;54;20404;-78
2022/01/19 05:41:00;;;;;;;9.17;8.27;;;5.00;99.90;;;;;;2613666;54;20435;-79
2022/01/19 05:43:33;;;;;;;11.40;10.30;;;4.90;99.90;;;;;;2613012;47;20416;-79
2022/01/19 05:45:59;;;;;;;11.13;10.03;;;4.90;99.90;;;;;;2611474;47;20430;-76
2022/01/19 05:48:25;;;;;;;14.50;10.07;;;4.90;99.90;;;;;;2611818;54;20174;-77
2022/01/19 05:50:54;;;;;;;10.07;9.17;;;4.90;99.90;;;;;;2611607;47;20563;-77
2022/01/19 05:53:24;;;;;;;11.07;9.97;;;5.00;99.90;;;;;;2613871;47;20407;-78
2022/01/19 05:55:50;;;;;;;11.10;9.70;;;5.10;99.90;;;;;;2613849;47;20427;-78
2022/01/19 05:58:16;;;;;;;13.07;10.17;;;5.00;99.90;;;;;;2613571;39;20596;-76
2022/01/19 06:00:43;;;;;;;10.30;9.30;;;5.10;99.90;;;;;;2611983;50;20194;-78
2022/01/19 06:03:10;;;;;;;13.73;9.00;;;5.10;99.90;;;;;;2613217;54;21094;-77
2022/01/19 06:05:54;;;;;;;7.80;6.63;;;5.10;99.90;;;;;;2612558;54;20434;-78
2022/01/19 06:08:44;;;;;;;9.93;8.67;;;4.90;99.90;;;;;;2613277;47;20426;-77
2022/01/19 06:11:12;;;;;;;9.50;8.70;;;4.90;99.90;;;;;;2612774;47;20648;-80
2022/01/19 06:13:38;;;;;;;8.57;7.77;;;4.90;99.90;;;;;;2614244;54;20960;-77
2022/01/19 06:16:06;;;;;;;8.33;7.60;;;4.90;99.90;;;;;;2613395;39;20859;-78
2022/01/19 06:18:32;;;;;;;7.47;6.77;;;4.90;99.90;;;;;;2612422;54;20407;-78
2022/01/19 06:20:59;;;;;;;7.33;6.63;;;4.90;99.90;;;;;;2613538;48;20956;-78
2022/01/19 06:23:34;;;;;;;6.47;5.87;;;4.90;99.90;;;;;;2612558;51;20434;-78
2022/01/19 06:26:06;;;;;;;8.40;7.60;;;4.90;99.90;;;;;;2612272;54;20425;-80
2022/01/19 06:28:32;;;;;;;9.60;8.70;;;4.90;99.90;;;;;;2613928;54;20829;-76
2022/01/19 06:30:58;;;;;;;11.50;8.77;;;5.00;99.90;;;;;;2611768;51;20392;-78
2022/01/19 06:33:24;;;;;;;9.20;8.40;;;5.00;99.90;;;;;;2614262;54;21011;-78
2022/01/19 06:35:52;;;;;;;9.53;8.63;;;5.00;99.90;;;;;;2612880;54;20419;-77
2022/01/19 06:38:25;;;;;;;8.23;7.37;;;5.00;99.90;;;;;;2613491;47;20383;-80
2022/01/19 06:41:18;;;;;;;9.77;8.87;;;4.90;99.90;;;;;;2613858;47;20419;-78
2022/01/19 06:43:43;;;;;;;8.50;7.80;;;4.90;99.90;;;;;;2614118;39;20809;-78
2022/01/19 06:46:09;;;;;;;8.17;7.47;;;5.00;99.90;;;;;;2613034;51;20427;-78
2022/01/19 06:48:36;;;;;;;6.57;5.97;;;5.20;99.90;;;;;;2611704;39;20827;-78
2022/01/19 06:51:06;;;;;;;7.80;7.00;;;5.00;99.90;;;;;;2612418;39;20602;-77
2022/01/19 06:53:54;;;;;;;7.80;7.10;;;5.00;99.90;;;;;;2613957;46;20445;-78
2022/01/19 06:56:26;;;;;;;8.67;7.87;;;4.90;99.90;;;;;;2611547;47;20415;-78
2022/01/19 06:59:00;;;;;;;5.90;5.43;;;4.90;99.90;;;;;;2611554;54;20480;-78
2022/01/19 07:01:33;;;;;;;8.93;8.13;;;4.90;99.90;;;;;;2611657;31;20913;-78
2022/01/19 07:04:28;;;;;;;9.87;8.90;;;5.00;99.90;;;;;;2609325;47;20443;-79
2022/01/19 07:06:54;;;;;;;7.10;6.40;;;5.00;99.90;;;;;;2611081;39;20820;-79
2022/01/19 07:09:29;;;;;;;7.63;7.00;;;4.90;99.90;;;;;;2610000;47;20426;-79
2022/01/19 07:11:56;;;;;;;7.60;6.77;;;4.90;99.90;;;;;;2611232;47;20987;-79
2022/01/19 07:14:22;;;;;;;9.97;9.10;;;5.00;99.90;;;;;;2612711;47;20426;-79
2022/01/19 07:16:51;;;;;;;9.60;8.70;;;4.90;99.90;;;;;;2607211;47;21060;-79
2022/01/19 07:19:17;;;;;;;13.13;9.27;;;4.90;99.90;;;;;;2609118;47;20407;-79
2022/01/19 07:21:44;;;;;;;6.00;5.40;;;5.00;99.90;;;;;;2609898;54;20181;-79
2022/01/19 07:24:12;;;;;;;7.50;6.47;;;5.00;99.90;;;;;;2607535;47;20427;-79
2022/01/19 07:26:38;;;;;;;9.10;8.20;;;4.90;99.90;;;;;;2607892;47;20166;-78
2022/01/19 07:29:06;;;;;;;9.00;7.90;;;4.90;99.90;;;;;;2601314;47;20550;-79
2022/01/19 07:31:33;;;;;;;10.30;9.30;;;4.90;99.90;;;;;;2605729;47;20416;-79
2022/01/19 07:34:03;;;;;;;9.07;8.23;;;5.10;99.90;;;;;;2605656;54;20442;-78
2022/01/19 07:36:30;;;;;;;10.00;9.00;;;4.90;99.90;;;;;;2607441;47;21194;-79
2022/01/19 07:38:56;;;;;;;8.60;7.80;;;4.90;99.90;;;;;;2606032;54;20442;-79
2022/01/19 07:41:22;;;;;;;10.77;9.63;;;5.00;99.90;;;;;;2606932;39;21800;-78
2022/01/19 07:43:51;;;;;;;8.23;7.23;;;5.00;99.90;;;;;;2606946;47;20486;-80
2022/01/19 07:46:35;;;;;;;6.57;5.40;;;4.80;99.90;;;;;;2606832;54;20426;-78
2022/01/19 07:49:30;;;;;;;8.20;7.50;;;4.80;99.90;;;;;;2606484;39;20952;-79
2022/01/19 07:52:14;;;;;;;9.07;8.27;;;4.90;99.90;;;;;;2604937;47;20547;-79
2022/01/19 07:54:53;;;;;;;6.83;6.13;;;4.80;99.90;;;;;;2609630;47;21177;-79
2022/01/19 07:57:41;;;;;;;11.90;10.63;;;4.80;99.90;;;;;;2606653;54;20435;-78
2022/01/19 08:00:26;;;;;;;12.03;9.40;;;4.70;99.90;;;;;;2606378;54;20427;-80
2022/01/19 08:02:52;;;;;;;14.67;12.00;;;4.70;99.90;;;;;;2606542;54;20414;-79
2022/01/19 08:05:47;;;;;;;13.77;11.60;;;4.70;99.90;;;;;;2608506;47;20151;-81
2022/01/19 08:08:14;;;;;;;15.83;13.07;;;4.70;99.90;;;;;;2607016;47;20848;-80
2022/01/19 08:10:42;;;;;;;13.40;11.97;;;4.60;99.90;;;;;;2605908;51;20519;-79
2022/01/19 08:13:09;;;;;;;15.03;9.50;;;4.70;99.90;;;;;;2607954;47;20534;-78
2022/01/19 08:15:35;;;;;;;12.50;10.20;;;4.70;99.90;;;;;;2606934;54;20475;-79
2022/01/19 08:18:04;;;;;;;15.33;12.40;;;4.70;99.90;;;;;;2605739;47;20399;-80
2022/01/19 08:20:30;;;;;;;16.43;13.43;;;4.70;99.90;;;;;;2607332;54;20426;-77
2022/01/19 08:22:56;;;;;;;15.87;12.90;;;4.60;99.90;;;;;;2606501;47;20194;-79
2022/01/19 08:25:26;;;;;;;16.60;13.23;;;4.70;99.90;;;;;;2606255;47;20406;-79
2022/01/19 08:27:52;;;;;;;10.37;8.97;;;4.70;99.90;;;;;;2606923;49;20410;-80
2022/01/19 08:30:26;;;;;;;16.20;12.10;;;4.60;99.90;;;;;;2606893;46;20438;-80
2022/01/19 08:32:52;;;;;;;17.00;10.13;;;4.50;99.90;;;;;;2606353;47;20438;-78
2022/01/19 08:35:25;;;;;;;15.63;12.97;;;4.60;99.90;;;;;;2607945;46;20579;-80
2022/01/19 08:38:10;;;;;;;17.30;12.87;;;4.50;99.90;;;;;;2608226;54;20403;-79
2022/01/19 08:40:43;;;;;;;13.60;11.07;;;4.60;99.90;;;;;;2609649;47;20476;-78
2022/01/19 08:43:16;;;;;;;10.70;9.07;;;4.50;99.90;;;;;;2607890;47;20435;-79
2022/01/19 08:45:43;;;;;;;13.23;10.50;;;4.50;99.90;;;;;;2607651;54;20415;-81
2022/01/19 08:48:10;;;;;;;16.70;12.63;;;4.40;99.90;;;;;;2608398;47;20966;-82
2022/01/19 08:50:48;;;;;;;23.73;15.77;;;4.50;99.90;;;;;;2607594;47;20398;-80
2022/01/19 08:53:29;;;;;;;14.70;10.60;;;4.50;99.90;;;;;;2607725;47;20465;-81
2022/01/19 08:56:10;;;;;;;22.43;14.30;;;4.50;99.90;;;;;;2607297;51;20434;-79
2022/01/19 08:58:36;;;;;;;14.97;12.87;;;4.40;99.90;;;;;;2607297;54;20421;-82
2022/01/19 09:01:02;;;;;;;18.93;15.17;;;4.40;99.90;;;;;;2604991;47;20523;-79
2022/01/19 09:03:28;;;;;;;19.63;14.30;;;4.50;99.90;;;;;;2606622;54;20190;-78
2022/01/19 09:05:54;;;;;;;17.07;12.70;;;4.50;99.90;;;;;;2608932;39;20910;-81
2022/01/19 09:08:20;;;;;;;17.03;12.70;;;4.60;99.90;;;;;;2606773;54;20495;-80
2022/01/19 09:10:50;;;;;;;17.07;11.40;;;4.70;99.90;;;;;;2607598;47;20190;-81
2022/01/19 09:13:16;;;;;;;16.27;12.97;;;4.50;99.90;;;;;;2613570;54;20420;-79
2022/01/19 09:15:42;;;;;;;11.90;10.17;;;4.60;99.90;;;;;;2612224;54;20414;-80
2022/01/19 09:18:08;;;;;;;20.83;12.67;;;4.50;99.90;;;;;;2607020;47;20438;-78
2022/01/19 09:20:34;;;;;;;23.77;15.90;;;4.50;99.90;;;;;;2606053;54;20423;-81
2022/01/19 09:23:02;;;;;;;19.47;13.53;;;4.50;99.90;;;;;;2607171;54;21649;-78
2022/01/19 09:25:28;;;;;;;20.37;14.77;;;4.60;99.90;;;;;;2605769;54;21130;-80
2022/01/19 09:27:54;;;;;;;14.07;9.47;;;4.60;99.90;;;;;;2608269;54;20458;-77
2022/01/19 09:30:23;;;;;;;14.40;10.30;;;4.60;99.90;;;;;;2608140;47;20439;-79
2022/01/19 09:32:56;;;;;;;19.10;14.30;;;4.60;99.90;;;;;;2608928;47;21126;-79
2022/01/19 09:35:25;;;;;;;20.10;15.80;;;4.60;99.90;;;;;;2609993;46;20474;-77
2022/01/19 09:37:52;;;;;;;21.80;15.90;;;4.60;99.90;;;;;;2608035;50;20435;-80
2022/01/19 09:40:18;;;;;;;12.77;9.77;;;4.60;99.90;;;;;;2608943;54;20389;-81
2022/01/19 09:42:48;;;;;;;23.40;16.87;;;4.60;99.90;;;;;;2609566;54;20412;-79
2022/01/19 09:45:14;;;;;;;11.87;9.77;;;4.60;99.90;;;;;;2608781;39;21069;-81
2022/01/19 09:47:40;;;;;;;18.73;14.33;;;4.60;99.90;;;;;;2609998;47;20407;-81
2022/01/19 09:50:06;;;;;;;17.93;12.47;;;4.60;99.90;;;;;;2608881;54;20197;-81
2022/01/19 09:52:32;;;;;;;19.27;14.60;;;4.50;99.90;;;;;;2608287;54;20928;-81
2022/01/19 09:54:58;;;;;;;23.17;15.60;;;4.40;99.90;;;;;;2609585;54;20395;-82
2022/01/19 09:57:24;;;;;;;17.93;11.77;;;4.50;99.90;;;;;;2607342;51;20515;-80
2022/01/19 09:59:50;;;;;;;21.43;15.77;;;4.50;99.90;;;;;;2609041;47;20162;-82
2022/01/19 10:02:17;;;;;;;17.13;12.40;;;4.60;99.90;;;;;;2608714;54;21144;-83
2022/01/19 10:04:47;;;;;;;27.20;16.13;;;4.70;99.90;;;;;;2611634;39;20968;-80
2022/01/19 10:07:15;;;;;;;18.23;13.57;;;4.80;99.90;;;;;;2611403;54;20557;-81
2022/01/19 10:09:59;;;;;;;25.50;12.37;;;4.70;99.90;;;;;;2609815;47;21573;-80
2022/01/19 10:18:15;;;;;;;22.17;16.10;;;4.90;99.90;;;;;;2608773;54;20977;-81
2022/01/19 10:20:42;;;;;;;24.97;14.93;;;4.80;99.90;;;;;;2607673;54;20425;-82
2022/01/19 10:23:36;;;;;;;17.63;12.77;;;4.90;99.90;;;;;;2606184;54;20924;-81
2022/01/19 10:26:04;;;;;;;21.93;15.27;;;4.80;99.90;;;;;;2606283;47;20427;-80
2022/01/19 10:28:29;;;;;;;15.10;12.30;;;4.90;99.90;;;;;;2608633;54;20530;-79
2022/01/19 10:30:59;;;;;;;23.57;16.67;;;4.80;99.90;;;;;;2608084;54;20952;-82
2022/01/19 10:33:25;;;;;;;20.77;14.70;;;4.80;99.90;;;;;;2607991;47;20285;-80
2022/01/19 10:35:50;;;;;;;22.13;16.07;;;4.90;99.90;;;;;;2609841;39;20837;-79
2022/01/19 10:38:28;;;;;;;18.60;14.20;;;4.90;99.90;;;;;;2607429;54;20178;-82
2022/01/19 10:40:54;;;;;;;16.40;11.70;;;5.00;99.90;;;;;;2608871;54;21126;-82
2022/01/19 10:43:26;;;;;;;24.10;17.47;;;5.00;99.90;;;;;;2609750;54;20431;-82
2022/01/19 10:45:52;;;;;;;21.97;16.37;;;4.90;99.90;;;;;;2610045;39;20593;-82
2022/01/19 10:48:35;;;;;;;15.97;10.90;;;4.90;99.90;;;;;;2609349;54;20404;-81
2022/01/19 10:51:10;;;;;;;18.60;11.10;;;4.90;99.90;;;;;;2606843;54;20446;-80
2022/01/19 10:53:36;;;;;;;17.60;10.70;;;5.00;99.90;;;;;;2608232;54;20410;-80
2022/01/19 10:56:05;;;;;;;12.97;10.70;;;5.00;99.90;;;;;;2608743;47;20413;-81
2022/01/19 10:58:33;;;;;;;19.07;13.97;;;4.80;99.90;;;;;;2607905;51;20427;-80
2022/01/19 11:01:00;;;;;;;19.83;15.87;;;4.80;99.90;;;;;;2608198;39;20885;-82
2022/01/19 11:03:28;;;;;;;20.20;15.70;;;4.90;99.90;;;;;;2610552;31;20875;-82
2022/01/19 11:06:00;;;;;;;24.53;16.03;;;5.00;99.90;;;;;;2609642;39;21301;-78
2022/01/19 11:08:29;;;;;;;20.87;14.20;;;4.90;99.90;;;;;;2609460;54;20398;-81
2022/01/19 11:10:57;;;;;;;14.20;11.67;;;5.00;99.90;;;;;;2607553;54;20534;-80
2022/01/19 11:15:57;;;;;;;14.00;7.73;;;5.00;99.90;;;;;;2607987;39;20823;-81
2022/01/19 11:18:25;;;;;;;19.30;12.93;;;5.00;99.90;;;;;;2607998;54;21165;-80
2022/01/19 11:20:52;;;;;;;21.87;14.90;;;4.90;99.90;;;;;;2607295;54;20464;-80
2022/01/19 11:23:36;;;;;;;17.43;10.50;;;5.00;99.90;;;;;;2606055;54;20407;-81
2022/01/19 11:26:09;;;;;;;20.17;12.03;;;5.00;99.90;;;;;;2606721;46;20558;-81
2022/01/19 11:28:44;;;;;;;20.33;12.80;;;5.00;99.90;;;;;;2608368;54;20526;-80
2022/01/19 11:31:21;;;;;;;16.30;11.90;;;5.10;99.90;;;;;;2607671;47;21180;-81
2022/01/19 11:33:55;;;;;;;18.87;14.80;;;5.10;99.90;;;;;;2606828;39;21453;-80
2022/01/19 11:36:31;;;;;;;18.23;11.10;;;5.10;99.90;;;;;;2607645;54;20404;-79
2022/01/19 11:39:11;;;;;;;17.93;13.90;;;5.20;99.90;;;;;;2607354;54;21351;-80
2022/01/19 11:41:56;;;;;;;23.13;15.87;;;5.20;99.90;;;;;;2608572;54;20407;-79
2022/01/19 11:44:28;;;;;;;14.83;11.83;;;5.20;99.90;;;;;;2608341;47;21240;-79
2022/01/19 11:46:55;;;;;;;16.27;12.93;;;5.10;99.90;;;;;;2608252;47;20510;-80
2022/01/19 11:49:44;;;;;;;18.60;12.50;;;5.10;99.90;;;;;;2608455;39;21016;-81
2022/01/19 11:52:10;;;;;;;26.60;17.13;;;5.20;99.90;;;;;;2608138;54;20415;-82
2022/01/19 11:54:37;;;;;;;16.70;12.30;;;5.30;99.90;;;;;;2608543;39;20973;-79
2022/01/19 11:57:10;;;;;;;18.70;12.63;;;5.20;99.90;;;;;;2608141;54;20603;-81
2022/01/19 11:59:45;;;;;;;18.27;13.80;;;5.10;99.90;;;;;;2607546;51;20435;-83
2022/01/19 12:02:33;;;;;;;16.90;10.77;;;5.20;99.90;;;;;;2609737;54;20935;-80
2022/01/19 12:04:58;;;;;;;13.90;10.37;;;5.30;99.90;;;;;;2609925;47;20463;-83
2022/01/19 12:07:57;;;;;;;19.60;15.93;;;5.20;99.90;;;;;;2608596;54;20428;-81
2022/01/19 12:10:44;;;;;;;17.40;14.37;;;5.10;99.90;;;;;;2608675;39;20603;-80
2022/01/19 12:16:30;;;;;;;17.67;12.13;;;5.00;99.90;;;;;;2610088;54;20428;-79
2022/01/19 12:19:20;;;;;;;23.60;16.63;;;5.00;99.90;;;;;;2610251;54;20407;-81
2022/01/19 12:22:06;;;;;;;28.70;12.43;;;5.30;99.90;;;;;;2607911;54;20403;-80
2022/01/19 12:24:54;;;;;;;18.63;10.60;;;5.20;99.90;;;;;;2610073;54;20506;-80
2022/01/19 12:27:23;;;;;;;19.90;14.40;;;5.10;99.90;;;;;;2608576;39;21365;-80
2022/01/19 12:29:58;;;;;;;14.50;11.90;;;5.20;99.90;;;;;;2609426;54;20407;-81
2022/01/19 12:32:25;;;;;;;14.87;11.03;;;5.30;99.90;;;;;;2608140;50;20979;-80
2022/01/19 12:34:54;;;;;;;21.17;14.60;;;5.00;99.90;;;;;;2609823;54;20422;-79
2022/01/19 12:37:41;;;;;;;11.80;10.50;;;5.10;99.90;;;;;;2608552;47;20178;-79
2022/01/19 12:40:12;;;;;;;20.77;14.07;;;5.10;99.90;;;;;;2607283;47;20427;-81
2022/01/19 12:42:49;;;;;;;22.40;13.70;;;5.30;99.90;;;;;;2610235;54;20416;-81
2022/01/19 12:45:32;;;;;;;16.90;12.40;;;5.10;99.90;;;;;;2614946;47;20411;-81
2022/01/19 12:47:59;;;;;;;17.77;13.90;;;5.00;99.90;;;;;;2615851;54;20402;-80
2022/01/19 12:50:27;;;;;;;25.30;17.20;;;5.10;99.90;;;;;;2610657;54;21170;-80
2022/01/19 12:52:57;;;;;;;21.93;11.20;;;5.00;99.90;;;;;;2610226;54;20954;-84
2022/01/19 12:55:26;;;;;;;25.13;18.53;;;5.00;99.90;;;;;;2609123;39;20529;-79
2022/01/19 12:57:54;;;;;;;15.00;10.53;;;5.00;99.90;;;;;;2608268;47;20458;-80
2022/01/19 13:00:29;;;;;;;20.17;15.93;;;4.90;99.90;;;;;;2609631;47;20414;-82
2022/01/19 13:02:57;;;;;;;12.23;8.43;;;4.90;99.90;;;;;;2611175;39;20772;-81
2022/01/19 13:05:24;;;;;;;20.00;13.07;;;4.90;99.90;;;;;;2609368;54;20438;-80
2022/01/19 13:07:56;;;;;;;24.50;17.13;;;4.90;99.90;;;;;;2610168;54;20433;-80
2022/01/19 13:13:26;;;;;;;18.73;12.83;;;5.00;99.90;;;;;;2610631;47;20402;-81
2022/01/19 13:16:00;;;;;;;21.03;16.30;;;4.90;99.90;;;;;;2607867;47;20442;-82
2022/01/19 13:18:36;;;;;;;14.70;11.10;;;4.90;99.90;;;;;;2610169;47;20481;-82
2022/01/19 13:21:11;;;;;;;16.37;13.13;;;4.90;99.90;;;;;;2610809;54;20392;-82
2022/01/19 13:23:56;;;;;;;19.57;14.20;;;5.00;99.90;;;;;;2613143;54;20438;-79
2022/01/19 13:26:23;;;;;;;27.67;18.43;;;5.00;99.90;;;;;;2608913;39;20965;-80
2022/01/19 13:28:49;;;;;;;21.30;13.07;;;4.90;99.90;;;;;;2610479;54;20379;-81
2022/01/19 13:31:23;;;;;;;21.17;15.53;;;4.90;99.90;;;;;;2609439;54;20393;-79
2022/01/19 13:33:54;;;;;;;19.80;13.23;;;4.90;99.90;;;;;;2609274;54;20414;-81
2022/01/19 13:36:29;;;;;;;19.63;12.53;;;4.90;99.90;;;;;;2608794;47;20436;-79
2022/01/19 13:38:56;;;;;;;22.37;14.63;;;4.80;99.90;;;;;;2609031;47;21484;-79
2022/01/19 13:41:23;;;;;;;17.87;14.40;;;4.80;99.90;;;;;;2613721;54;20406;-79
2022/01/19 13:43:49;;;;;;;18.97;15.53;;;4.80;99.90;;;;;;2612686;54;20408;-79
2022/01/19 13:46:25;;;;;;;23.40;15.60;;;4.80;99.90;;;;;;2614563;54;20402;-79
2022/01/19 13:49:00;;;;;;;17.20;13.60;;;4.90;99.90;;;;;;2615684;47;20415;-79
2022/01/19 13:51:29;;;;;;;21.17;16.00;;;4.90;99.90;;;;;;2611946;47;20418;-81
2022/01/19 13:54:00;;;;;;;24.70;17.30;;;4.90;99.90;;;;;;2611143;39;20472;-81
2022/01/19 13:56:37;;;;;;;24.10;13.27;;;4.80;99.90;;;;;;2608483;54;20403;-80
2022/01/19 13:59:18;;;;;;;19.77;15.00;;;4.80;99.90;;;;;;2608876;47;20419;-81
2022/01/19 14:02:05;;;;;;;17.77;12.40;;;4.70;99.90;;;;;;2612194;54;20423;-80
2022/01/19 14:04:36;;;;;;;19.10;14.47;;;4.80;99.90;;;;;;2615038;54;20519;-80
2022/01/19 14:07:10;;;;;;;15.97;10.67;;;4.80;99.90;;;;;;2607537;47;20474;-80
2022/01/19 14:09:36;;;;;;;21.57;15.03;;;4.90;99.90;;;;;;2608277;46;20427;-81
2022/01/19 14:12:03;;;;;;;24.63;17.30;;;4.80;99.90;;;;;;2609169;47;20526;-80
2022/01/19 14:14:34;;;;;;;19.97;13.97;;;4.90;99.90;;;;;;2609664;54;20927;-78
2022/01/19 14:17:01;;;;;;;24.60;17.73;;;4.80;99.90;;;;;;2608488;54;20415;-80
2022/01/19 14:19:28;;;;;;;23.33;15.30;;;4.70;99.90;;;;;;2610625;54;20975;-80
2022/01/19 14:21:59;;;;;;;25.23;17.70;;;4.70;99.90;;;;;;2609328;54;20479;-80
2022/01/19 14:24:27;;;;;;;24.07;16.07;;;4.70;99.90;;;;;;2608692;47;22443;-80
2022/01/19 14:26:58;;;;;;;23.50;16.37;;;4.80;99.90;;;;;;2608588;47;20437;-80
2022/01/19 14:29:28;;;;;;;20.40;15.07;;;4.80;99.90;;;;;;2609569;51;20431;-79
2022/01/19 14:31:59;;;;;;;19.30;14.30;;;4.80;99.90;;;;;;2608466;47;20542;-81